Главная страница
METAR-TAF:

METAR-TAF

Аэропорты :

Векшё, Швеция

широта: 56-51N, долгота: 014-50E, высота над уровнем моря: 199 м

Текущие метеонаблюдения

Эта сводка был подготовлена 37 минут назад, в 07:20 UTC
Ветер 13 Узел от южный
Температура 5°C
Влажность 93%
Давление 1013 hPa
Видимость 10 км и более
Рассеянная облачность на высоте 800 фута

METAR: ESMX 170720Z 18013KT 9999 BKN008 05/04 Q1013

Время: 08:57 (07:57 UTC)

Прогноз

Эта сводка был подготовлена 2 часа и 27 минут назад, в 05:30 UTC
Прогноз действительный с 17-го 06 UTC до 17-го 15 UTC
Ветер 15 Узел от южный
Видимость 10 км и более
Рассеянная облачность на высоте 900 фута
изменения
С 17-го 06 UTC до 17-го 08 UTC
Отдельные облака на высоте 1000 фута
Рассеянная облачность на высоте 1500 фута

TAF: ESMX 170530Z 1706/1715 19015KT 9999 BKN009 BECMG 1706/1708 SCT010 BKN015

Метеонаблюдения и прогнозы для более 4000 аэропортов (сводки METAR и TAF).

Имеющиеся станции представлены на карте желтыми и красными точками.

Чтобы увидеть название станции, наведите на нее мышь.

Затем щелкните, чтобы увидеть метеонаблюдения и метеопрогнозы.

Управление картой: чтобы увеличить масштаб, щелкните зеленые кнопки с черным крестиком; чтобы уменьшить масштаб, щелкните зеленую кнопку с тире; для просмотра соседних карт щелкайте зеленые стрелки.


METAR-TAF: